Time;durP1;ratioP1;P1;durP2;ratioP2;P2;SDS_P1;SDS_P2;PMS_P1;PMS_P2;Temp;Humidity;BMP_temperature;BMP_pressure;BME280_temperature;BME280_humidity;BME280_pressure;Samples;Min_cycle;Max_cycle;Signal;HPM_P1;HPM_P2
2021/01/09 00:00:16;;;;;;;5.87;4.70;;;;;;;5.25;70.93;101457.14;1737456;82;21569;-46
2021/01/09 00:02:44;;;;;;;5.95;5.37;;;;;;;5.22;70.86;101448.06;1736824;82;21589;-46
2021/01/09 00:05:13;;;;;;;5.78;5.15;;;;;;;5.20;71.01;101457.50;1742533;82;21145;-46
2021/01/09 00:07:41;;;;;;;5.08;4.60;;;;;;;5.18;70.87;101463.07;1741900;82;21148;-46
2021/01/09 00:10:10;;;;;;;5.10;4.60;;;;;;;5.15;71.03;101469.50;1729061;82;21200;-46
2021/01/09 00:12:40;;;;;;;4.90;4.37;;;;;;;5.12;71.11;101484.52;1731316;81;21606;-46
2021/01/09 00:15:10;;;;;;;5.37;4.87;;;;;;;5.09;71.14;101483.63;1721217;82;21169;-46
2021/01/09 00:17:39;;;;;;;5.15;4.62;;;;;;;5.07;71.34;101481.00;1726115;82;21141;-46
2021/01/09 00:20:14;;;;;;;7.22;5.58;;;;;;;5.09;71.34;101477.17;1717034;82;21176;-46
2021/01/09 00:22:43;;;;;;;6.37;5.62;;;;;;;5.08;71.47;101469.85;1650745;86;21278;-46
2021/01/09 00:25:12;;;;;;;6.55;5.72;;;;;;;5.09;71.60;101474.59;1654571;86;21639;-46
2021/01/09 00:27:41;;;;;;;8.38;6.37;;;;;;;5.10;71.53;101491.78;1649315;86;21243;-46
2021/01/09 00:30:11;;;;;;;7.55;6.72;;;;;;;5.08;71.48;101489.61;1662661;86;21616;-46
2021/01/09 00:32:40;;;;;;;8.18;7.05;;;;;;;5.08;71.58;101497.34;1649486;86;21199;-45
2021/01/09 00:35:10;;;;;;;8.58;7.45;;;;;;;5.06;71.42;101502.50;1650642;86;21180;-46
2021/01/09 00:37:39;;;;;;;8.13;7.00;;;;;;;5.04;71.42;101498.16;1650250;86;21171;-45
2021/01/09 00:40:09;;;;;;;10.15;7.87;;;;;;;5.00;71.66;101508.00;1662997;86;21341;-46
2021/01/09 00:42:41;;;;;;;8.90;7.42;;;;;;;5.00;71.32;101510.16;1655641;85;21701;-45
2021/01/09 00:45:12;;;;;;;8.48;7.33;;;;;;;5.00;71.44;101510.16;1654447;86;21564;-45
2021/01/09 00:47:40;;;;;;;10.75;7.95;;;;;;;4.96;71.37;101501.94;1648152;86;21280;-45
2021/01/09 00:50:10;;;;;;;8.40;7.00;;;;;;;4.92;71.34;101510.04;1652994;86;21239;-46
2021/01/09 00:52:39;;;;;;;11.40;9.05;;;;;;;4.88;71.48;101504.41;1654220;86;21182;-45
2021/01/09 00:55:09;;;;;;;9.10;7.58;;;;;;;4.87;71.62;101514.29;1655424;85;21220;-45
2021/01/09 00:57:37;;;;;;;10.00;7.75;;;;;;;4.90;71.73;101516.89;1654707;85;21199;-46
2021/01/09 01:00:08;;;;;;;9.98;8.28;;;;;;;4.91;71.63;101513.48;1692205;82;21201;-46
2021/01/09 01:02:36;;;;;;;11.22;8.80;;;;;;;4.89;71.60;101515.17;1721273;82;21593;-46
2021/01/09 01:05:07;;;;;;;10.53;8.60;;;;;;;4.89;71.49;101510.43;1730196;82;21294;-46
2021/01/09 01:07:36;;;;;;;8.85;7.92;;;;;;;4.86;71.36;101503.96;1718106;82;21173;-46
2021/01/09 01:10:07;;;;;;;10.72;8.78;;;;;;;4.80;71.49;101491.84;1730928;82;21315;-46
2021/01/09 01:12:36;;;;;;;12.88;8.35;;;;;;;4.76;71.63;101499.08;1732356;82;21173;-45
2021/01/09 01:15:06;;;;;;;10.45;8.63;;;;;;;4.73;71.77;101501.64;1735783;82;21180;-46
2021/01/09 01:17:34;;;;;;;10.28;8.45;;;;;;;4.70;71.82;101489.98;1738975;82;21140;-46
2021/01/09 01:20:03;;;;;;;11.60;9.10;;;;;;;4.69;71.97;101499.86;1738289;82;21156;-46
2021/01/09 01:22:33;;;;;;;11.03;9.20;;;;;;;4.67;71.89;101488.67;1739518;82;21184;-46
2021/01/09 01:25:02;;;;;;;10.93;8.43;;;;;;;4.65;71.99;101489.07;1743826;82;21144;-47
2021/01/09 01:27:30;;;;;;;9.50;7.97;;;;;;;4.65;72.14;101486.91;1741283;82;21216;-45
2021/01/09 01:29:58;;;;;;;10.78;8.85;;;;;;;4.65;72.27;101476.59;1725845;82;21159;-46
2021/01/09 01:32:27;;;;;;;9.45;8.28;;;;;;;4.67;72.25;101476.19;1737524;82;21287;-46
2021/01/09 01:34:55;;;;;;;9.33;8.18;;;;;;;4.67;72.17;101474.49;1737391;82;21141;-45
2021/01/09 01:37:23;;;;;;;9.13;7.55;;;;;;;4.68;72.09;101473.63;1741193;82;21112;-46
2021/01/09 01:39:52;;;;;;;10.20;7.42;;;;;;;4.67;72.02;101455.57;1730653;82;21346;-45
2021/01/09 01:42:21;;;;;;;11.10;7.95;;;;;;;4.63;71.97;101464.98;1735213;82;21136;-46
2021/01/09 01:44:50;;;;;;;8.18;6.87;;;;;;;4.62;72.02;101468.39;1739643;82;21322;-46
2021/01/09 01:47:20;;;;;;;8.43;6.60;;;;;;;4.59;71.95;101459.34;1738050;82;21156;-45
2021/01/09 01:49:49;;;;;;;8.60;6.97;;;;;;;4.56;71.99;101452.84;1738960;82;21569;-46
2021/01/09 01:52:18;;;;;;;8.43;6.33;;;;;;;4.53;71.99;101455.40;1737272;82;21168;-46
2021/01/09 01:54:46;;;;;;;7.50;6.58;;;;;;;4.50;72.13;101457.92;1736883;82;21585;-45
2021/01/09 01:57:14;;;;;;;9.13;6.00;;;;;;;4.48;72.08;101454.45;1742462;80;21160;-45
2021/01/09 01:59:43;;;;;;;7.25;6.50;;;;;;;4.47;72.14;101457.86;1726692;82;21593;-46
2021/01/09 02:02:13;;;;;;;9.35;6.90;;;;;;;4.44;71.98;101455.67;1738255;82;21157;-46
2021/01/09 02:04:43;;;;;;;9.53;7.67;;;;;;;4.41;72.17;101461.64;1738888;82;21688;-46
2021/01/09 02:07:16;;;;;;;9.40;8.03;;;;;;;4.40;72.23;101461.21;1724847;82;21613;-45
2021/01/09 02:09:47;;;;;;;10.48;9.05;;;;;;;4.39;72.26;101464.62;1747795;82;21174;-45
2021/01/09 02:12:37;;;;;;;10.78;9.05;;;;;;;4.39;72.26;101468.93;1734879;82;21161;-46
2021/01/09 02:15:08;;;;;;;11.25;8.88;;;;;;;4.37;72.29;101480.48;1720358;82;21141;-46
2021/01/09 02:17:36;;;;;;;10.23;8.38;;;;;;;4.40;72.45;101481.83;1726854;82;21605;-46
2021/01/09 02:20:06;;;;;;;10.40;8.60;;;;;;;4.41;72.47;101487.41;1724473;82;21173;-46
2021/01/09 02:22:41;;;;;;;11.97;10.10;;;;;;;4.45;72.59;101496.91;1723491;82;21133;-46
2021/01/09 02:25:11;;;;;;;11.20;9.98;;;;;;;4.47;72.46;101494.38;1685411;84;21309;-46
2021/01/09 02:27:39;;;;;;;12.80;10.35;;;;;;;4.47;72.27;101505.98;1684385;84;21561;-46
2021/01/09 02:30:15;;;;;;;12.13;10.78;;;;;;;4.50;72.39;101496.98;1673359;84;21215;-45
2021/01/09 02:33:03;;;;;;;13.60;10.72;;;;;;;4.54;72.19;101495.77;1770955;79;23150;-46
2021/01/09 02:35:33;;;;;;;14.78;10.95;;;;;;;4.51;72.31;101506.05;1741357;82;21156;-46
2021/01/09 02:38:01;;;;;;;12.30;9.83;;;;;;;4.52;72.32;101502.61;1736884;82;21161;-45
2021/01/09 02:40:31;;;;;;;13.00;10.78;;;;;;;4.55;72.18;101516.85;1734128;82;21185;-45
2021/01/09 02:43:00;;;;;;;14.55;10.53;;;;;;;4.57;72.31;101524.19;1738990;82;21144;-46
2021/01/09 02:45:29;;;;;;;12.85;10.58;;;;;;;4.59;72.14;101527.65;1737997;82;21140;-46
2021/01/09 02:47:57;;;;;;;14.68;11.50;;;;;;;4.58;72.03;101530.18;1742113;82;21148;-46
2021/01/09 02:50:26;;;;;;;11.93;9.90;;;;;;;4.59;72.00;101530.64;1733910;82;21176;-46
2021/01/09 02:52:54;;;;;;;16.02;11.38;;;;;;;4.60;71.91;101528.08;1741110;82;21144;-46
2021/01/09 02:55:23;;;;;;;14.58;12.05;;;;;;;4.60;72.10;101528.08;1740590;82;21188;-46
2021/01/09 02:57:51;;;;;;;14.43;11.78;;;;;;;4.61;72.05;101531.11;1737833;82;21729;-46
2021/01/09 03:00:20;;;;;;;14.90;12.05;;;;;;;4.61;72.03;101534.98;1743692;82;21172;-46
2021/01/09 03:02:48;;;;;;;14.40;11.97;;;;;;;4.65;72.00;101529.02;1740152;82;21204;-46
2021/01/09 03:05:17;;;;;;;17.32;11.95;;;;;;;4.67;71.79;101530.33;1741039;82;21132;-46
2021/01/09 03:07:46;;;;;;;15.40;12.10;;;;;;;4.65;71.77;101535.47;1740912;82;21154;-46
2021/01/09 03:10:15;;;;;;;16.77;11.75;;;;;;;4.65;71.80;101540.62;1731928;82;21283;-45
2021/01/09 03:12:43;;;;;;;15.32;12.73;;;;;;;4.65;71.72;101538.05;1737596;82;21160;-46
2021/01/09 03:15:13;;;;;;;15.78;12.33;;;;;;;4.65;71.66;101535.47;1739241;82;21172;-46
2021/01/09 03:17:41;;;;;;;15.18;12.23;;;;;;;4.65;71.78;101539.75;1741237;82;21597;-46
2021/01/09 03:20:11;;;;;;;17.10;13.18;;;;;;;4.68;71.85;101555.24;1741148;82;21306;-45
2021/01/09 03:22:39;;;;;;;16.15;13.25;;;;;;;4.71;71.72;101556.17;1739802;82;21146;-46
2021/01/09 03:25:10;;;;;;;16.85;13.08;;;;;;;4.72;71.48;101543.72;1738220;81;21297;-46
2021/01/09 03:27:39;;;;;;;17.10;14.23;;;;;;;4.72;71.36;101552.73;1733180;82;21141;-47
2021/01/09 03:30:09;;;;;;;17.02;14.13;;;;;;;4.73;71.51;101573.83;1740094;82;21180;-46
2021/01/09 03:32:38;;;;;;;19.48;14.58;;;;;;;4.76;71.57;101569.98;1741577;81;21109;-46
2021/01/09 03:35:08;;;;;;;17.92;13.98;;;;;;;4.79;71.42;101566.18;1728599;82;21747;-46
2021/01/09 03:37:36;;;;;;;17.77;13.40;;;;;;;4.81;71.31;101582.95;1741965;82;21176;-46
2021/01/09 03:40:06;;;;;;;14.93;13.10;;;;;;;4.83;71.39;101588.58;1741684;82;21307;-46
2021/01/09 03:42:34;;;;;;;17.57;13.90;;;;;;;4.85;71.26;101576.58;1739714;82;21656;-46
2021/01/09 03:45:06;;;;;;;19.02;13.38;;;;;;;4.86;71.17;101574.42;1739026;82;21156;-46
2021/01/09 03:47:34;;;;;;;17.92;13.62;;;;;;;4.83;71.00;101576.98;1737237;82;21183;-46
2021/01/09 03:50:05;;;;;;;16.17;13.05;;;;;;;4.80;70.95;101584.66;1736939;82;21212;-45
2021/01/09 03:52:33;;;;;;;17.92;13.18;;;;;;;4.79;71.18;101596.24;1741963;82;21180;-46
2021/01/09 03:55:04;;;;;;;16.90;13.58;;;;;;;4.80;71.18;101605.73;1741234;82;21148;-45
2021/01/09 03:57:32;;;;;;;16.85;13.65;;;;;;;4.79;71.08;101602.27;1739554;82;21137;-46
2021/01/09 04:00:00;;;;;;;19.73;14.90;;;;;;;4.80;71.17;101606.57;1727610;82;21132;-46
2021/01/09 04:02:30;;;;;;;17.25;13.68;;;;;;;4.82;71.06;101601.02;1738636;82;21569;-46
2021/01/09 04:04:58;;;;;;;16.12;12.90;;;;;;;4.83;71.04;101597.61;1739882;80;21608;-46
2021/01/09 04:07:26;;;;;;;16.20;13.15;;;;;;;4.82;71.04;101606.17;1736887;82;21148;-45
2021/01/09 04:09:54;;;;;;;15.35;12.90;;;;;;;4.81;71.07;101609.61;1747262;82;21188;-46
2021/01/09 04:12:23;;;;;;;15.45;11.60;;;;;;;4.82;71.05;101613.91;1741143;82;21149;-46
2021/01/09 04:14:51;;;;;;;14.60;11.28;;;;;;;4.82;70.92;101608.75;1740964;82;21212;-45
2021/01/09 04:17:20;;;;;;;12.65;10.08;;;;;;;4.80;70.76;101616.88;1745087;82;21149;-46
2021/01/09 04:19:49;;;;;;;13.78;10.90;;;;;;;4.78;70.63;101614.70;1737878;82;21124;-46
2021/01/09 04:22:17;;;;;;;15.63;11.93;;;;;;;4.74;70.48;101619.38;1740478;82;21302;-46
2021/01/09 04:24:45;;;;;;;13.48;10.58;;;;;;;4.68;70.52;101617.11;1741290;82;21278;-46
2021/01/09 04:27:13;;;;;;;12.53;10.38;;;;;;;4.66;70.54;101627.41;1741141;82;21144;-46
2021/01/09 04:29:42;;;;;;;13.28;10.45;;;;;;;4.65;70.58;101624.41;1725027;82;21710;-46
2021/01/09 04:32:10;;;;;;;12.40;10.13;;;;;;;4.65;70.47;101629.97;1740308;81;21148;-46
2021/01/09 04:34:39;;;;;;;14.60;10.50;;;;;;;4.64;70.38;101630.80;1741186;82;21133;-45
2021/01/09 04:37:08;;;;;;;14.47;11.18;;;;;;;4.59;70.33;101623.02;1741219;82;21149;-46
2021/01/09 04:39:36;;;;;;;13.95;11.08;;;;;;;4.59;70.50;101623.02;1723926;82;21153;-46
2021/01/09 04:42:05;;;;;;;13.50;10.60;;;;;;;4.60;70.60;101614.42;1740534;82;21184;-45
2021/01/09 04:44:37;;;;;;;16.50;10.88;;;;;;;4.62;70.73;101628.20;1741314;82;21137;-45
2021/01/09 04:47:06;;;;;;;15.10;11.50;;;;;;;4.65;70.74;101643.73;1741502;82;21137;-45
2021/01/09 04:49:34;;;;;;;14.95;12.28;;;;;;;4.67;70.82;101645.91;1739957;82;21137;-46
2021/01/09 04:52:03;;;;;;;17.67;13.00;;;;;;;4.74;70.78;101650.31;1738126;82;21156;-45
2021/01/09 04:54:32;;;;;;;19.02;13.70;;;;;;;4.81;70.69;101653.45;1738105;82;21282;-46
2021/01/09 04:57:01;;;;;;;16.77;14.00;;;;;;;4.83;70.50;101658.20;1738028;82;21160;-46
2021/01/09 04:59:29;;;;;;;18.55;13.15;;;;;;;4.83;70.61;101647.02;1731219;82;21160;-46
2021/01/09 05:01:57;;;;;;;18.37;14.40;;;;;;;4.87;70.65;101648.38;1741269;82;21184;-45
2021/01/09 05:04:27;;;;;;;18.95;13.85;;;;;;;4.91;70.40;101664.34;1741301;82;21153;-46
2021/01/09 05:06:55;;;;;;;16.45;13.40;;;;;;;4.96;70.22;101663.13;1739536;82;21629;-46
2021/01/09 05:09:24;;;;;;;16.15;12.40;;;;;;;5.03;69.76;101665.39;1726853;82;21310;-46
2021/01/09 05:11:52;;;;;;;14.40;11.70;;;;;;;5.05;69.46;101670.15;1739577;82;21362;-46
2021/01/09 05:14:20;;;;;;;16.70;12.80;;;;;;;5.07;69.03;101665.88;1732644;82;21149;-45
2021/01/09 05:16:49;;;;;;;14.07;12.18;;;;;;;5.09;69.11;101662.45;1709605;82;21299;-46
2021/01/09 05:19:18;;;;;;;16.93;12.35;;;;;;;5.12;68.79;101656.48;1742981;82;21152;-46
2021/01/09 05:21:46;;;;;;;16.02;12.47;;;;;;;5.15;68.45;101656.54;1740590;82;21145;-45
2021/01/09 05:24:15;;;;;;;14.55;11.75;;;;;;;5.16;68.01;101668.58;1738370;82;21140;-45
2021/01/09 05:26:44;;;;;;;13.55;10.65;;;;;;;5.16;68.10;101686.22;1688444;82;21132;-45
2021/01/09 05:29:14;;;;;;;16.50;12.47;;;;;;;5.16;68.06;101663.41;1702310;83;21873;-45
2021/01/09 05:31:43;;;;;;;14.95;12.63;;;;;;;5.14;67.81;101656.08;1741442;81;21117;-46
2021/01/09 05:34:13;;;;;;;16.67;12.68;;;;;;;5.12;67.85;101677.11;1738571;82;21184;-45
2021/01/09 05:36:41;;;;;;;17.00;11.93;;;;;;;5.12;67.57;101705.08;1738035;82;21140;-46
2021/01/09 05:39:10;;;;;;;16.48;12.50;;;;;;;5.13;67.56;101720.14;1727714;82;21121;-46
2021/01/09 05:41:41;;;;;;;15.08;12.15;;;;;;;5.13;67.84;101711.12;1740627;82;21620;-45
2021/01/09 05:44:10;;;;;;;14.13;11.70;;;;;;;5.18;67.77;101699.13;1744952;82;21183;-46
2021/01/09 05:46:40;;;;;;;14.23;11.40;;;;;;;5.19;67.43;101703.47;1737960;82;21444;-46
2021/01/09 05:49:09;;;;;;;14.53;11.60;;;;;;;5.20;67.56;101716.80;1711586;82;21160;-46
2021/01/09 05:51:39;;;;;;;15.50;12.47;;;;;;;5.19;67.36;101713.78;1737929;82;21542;-46
2021/01/09 05:54:08;;;;;;;14.05;11.25;;;;;;;5.20;67.04;101736.14;1738245;82;21164;-46
2021/01/09 05:56:39;;;;;;;13.95;11.30;;;;;;;5.19;67.14;101726.27;1738637;82;21597;-46
2021/01/09 05:59:08;;;;;;;14.05;10.93;;;;;;;5.20;67.04;101727.99;1709272;82;21589;-46
2021/01/09 06:01:36;;;;;;;15.63;12.35;;;;;;;5.19;66.93;101722.81;1739352;82;21136;-46
2021/01/09 06:04:09;;;;;;;15.53;11.60;;;;;;;5.22;67.04;101725.42;1738143;82;21156;-46
2021/01/09 06:07:20;;;;;;;12.55;10.30;;;;;;;5.25;66.80;101712.59;1738198;82;21168;-46
2021/01/09 06:10:03;;;;;;;12.15;10.40;;;;;;;5.25;66.81;101712.17;1728314;82;21147;-46
2021/01/09 06:12:39;;;;;;;12.85;11.00;;;;;;;5.26;66.70;101727.20;1734323;82;21145;-45
2021/01/09 06:15:08;;;;;;;17.27;12.18;;;;;;;5.24;66.24;101723.33;1741250;82;21566;-46
2021/01/09 06:17:37;;;;;;;14.07;11.73;;;;;;;5.22;66.06;101733.16;1741223;82;21184;-46
2021/01/09 06:20:08;;;;;;;11.68;9.78;;;;;;;5.21;66.20;101728.87;1739501;82;21145;-46
2021/01/09 06:22:36;;;;;;;13.00;11.20;;;;;;;5.22;65.99;101733.16;1738396;81;21156;-46
2021/01/09 06:25:08;;;;;;;16.55;12.00;;;;;;;5.22;66.11;101742.20;1736954;82;21319;-46
2021/01/09 06:27:36;;;;;;;16.23;11.20;;;;;;;5.23;65.96;101767.17;1740504;82;21169;-46
2021/01/09 06:30:06;;;;;;;14.55;11.28;;;;;;;5.24;65.77;101770.18;1727274;82;21664;-46
2021/01/09 06:32:40;;;;;;;12.60;10.60;;;;;;;5.25;65.86;101769.36;1738668;81;21223;-46
2021/01/09 06:35:10;;;;;;;14.63;11.08;;;;;;;5.26;65.87;101758.17;1738661;82;21172;-46
2021/01/09 06:37:39;;;;;;;12.98;11.15;;;;;;;5.28;66.04;101774.55;1743737;82;21163;-46
2021/01/09 06:40:12;;;;;;;14.03;11.00;;;;;;;5.29;65.55;101773.72;1680468;82;21604;-46
2021/01/09 06:42:42;;;;;;;12.33;9.73;;;;;;;5.30;65.86;101783.18;1740670;82;21168;-46
2021/01/09 06:45:11;;;;;;;13.13;10.15;;;;;;;5.32;65.61;101787.94;1738612;82;21180;-46
2021/01/09 06:47:39;;;;;;;11.25;9.63;;;;;;;5.33;65.33;101797.44;1689537;82;21125;-46
2021/01/09 06:50:28;;;;;;;11.30;9.20;;;;;;;5.33;65.48;101791.86;1739149;82;21298;-46
2021/01/09 06:52:59;;;;;;;11.12;9.28;;;;;;;5.35;65.24;101797.04;1743750;82;21164;-46
2021/01/09 06:55:40;;;;;;;;;;;;;;;5.39;64.88;101798.82;1741935;82;21144;-46
2021/01/09 06:58:09;;;;;;;12.60;9.55;;;;;;;5.40;64.74;101800.58;1736206;82;20126;-46
2021/01/09 07:00:38;;;;;;;12.53;10.35;;;;;;;5.38;65.03;101804.84;1744654;82;21183;-46
2021/01/09 07:03:18;;;;;;;9.98;8.63;;;;;;;5.39;64.87;101798.82;1734943;82;21141;-46
2021/01/09 07:05:48;;;;;;;11.90;9.30;;;;;;;5.42;64.67;101807.92;1690884;83;21141;-45
2021/01/09 07:08:30;;;;;;;8.80;7.37;;;;;;;5.46;64.71;101810.55;1704142;83;21600;-45
2021/01/09 07:11:00;;;;;;;9.63;8.03;;;;;;;5.51;64.18;101807.63;1687904;83;21244;-45
2021/01/09 07:13:29;;;;;;;10.93;7.90;;;;;;;5.54;63.94;101810.23;1706403;83;21220;-46
2021/01/09 07:16:12;;;;;;;11.08;8.60;;;;;;;5.55;63.76;101807.24;1704436;83;21168;-45
2021/01/09 07:18:47;;;;;;;11.05;8.53;;;;;;;5.57;63.74;101802.56;1703771;83;21129;-45
2021/01/09 07:21:21;;;;;;;10.68;7.90;;;;;;;5.57;63.87;101799.09;1704174;83;21181;-45
2021/01/09 07:23:52;;;;;;;12.88;10.00;;;;;;;5.61;64.21;101804.75;1703306;83;21196;-45
2021/01/09 07:26:21;;;;;;;11.18;9.43;;;;;;;5.59;63.83;101803.86;1703655;83;21165;-45
2021/01/09 07:28:51;;;;;;;10.40;8.83;;;;;;;5.53;64.10;101818.84;1699235;83;21157;-45
2021/01/09 07:31:26;;;;;;;13.78;10.63;;;;;;;5.52;64.26;101816.25;1658373;83;21161;-45
2021/01/09 07:34:03;;;;;;;12.18;10.18;;;;;;;5.52;64.00;101813.67;1809734;79;23468;-46
2021/01/09 07:36:31;;;;;;;12.98;9.40;;;;;;;5.44;64.19;101825.59;1725221;83;21172;-45
2021/01/09 07:39:04;;;;;;;16.42;12.68;;;;;;;5.43;64.35;101832.45;1725274;81;21298;-46
2021/01/09 07:41:35;;;;;;;13.65;11.25;;;;;;;5.42;64.31;101844.05;1734804;82;21199;-46
2021/01/09 07:44:14;;;;;;;14.30;11.18;;;;;;;5.39;64.14;101849.15;1756374;81;21604;-46
2021/01/09 07:46:57;;;;;;;17.05;13.13;;;;;;;5.32;64.56;101854.63;1747158;82;21154;-46
2021/01/09 07:49:30;;;;;;;16.48;12.63;;;;;;;5.31;64.47;101859.77;1745643;81;21147;-46
2021/01/09 07:52:05;;;;;;;12.18;10.85;;;;;;;5.30;65.15;101870.92;1739400;82;21162;-46
2021/01/09 07:54:43;;;;;;;17.42;13.05;;;;;;;5.36;65.37;101878.77;1722889;81;21144;-47
2021/01/09 07:57:22;;;;;;;15.98;13.08;;;;;;;5.38;65.60;101886.14;1709307;83;21348;-46
2021/01/09 08:00:01;;;;;;;12.78;10.48;;;;;;;5.42;65.44;101890.52;1744272;81;21196;-46
2021/01/09 08:02:33;;;;;;;15.38;12.35;;;;;;;5.45;65.44;101898.30;1745701;81;21184;-46
2021/01/09 08:05:07;;;;;;;16.25;13.50;;;;;;;5.49;65.31;101906.53;1722975;83;21122;-46
2021/01/09 08:07:43;;;;;;;15.10;12.05;;;;;;;5.50;65.22;101908.30;1716497;81;21149;-46
2021/01/09 08:10:19;;;;;;;16.42;12.50;;;;;;;5.51;65.03;101910.89;1729131;82;21167;-46
2021/01/09 08:12:53;;;;;;;15.25;12.23;;;;;;;5.53;65.05;101912.20;1721467;82;21591;-46
2021/01/09 08:15:21;;;;;;;13.90;11.25;;;;;;;5.54;64.97;101913.50;1721584;83;21147;-47
2021/01/09 08:17:49;;;;;;;15.23;12.75;;;;;;;5.56;64.82;101918.72;1725662;83;21136;-46
2021/01/09 08:20:18;;;;;;;14.73;12.82;;;;;;;5.54;65.05;101917.83;1716384;83;21300;-46
2021/01/09 08:22:55;;;;;;;18.95;13.10;;;;;;;5.54;65.01;101912.66;1721573;83;21232;-47
2021/01/09 08:25:27;;;;;;;16.93;12.88;;;;;;;5.54;64.97;101911.37;1717586;83;21207;-47
2021/01/09 08:27:57;;;;;;;15.20;12.33;;;;;;;5.57;64.60;101908.83;1627301;87;21204;-46
2021/01/09 08:30:32;;;;;;;16.37;12.45;;;;;;;5.57;64.90;101904.95;1616024;86;21197;-47
2021/01/09 08:33:12;;;;;;;16.73;13.50;;;;;;;5.66;64.75;101905.12;1762635;79;23121;-47
2021/01/09 08:35:48;;;;;;;16.80;13.30;;;;;;;5.65;65.35;101908.53;1738671;82;21152;-46
2021/01/09 08:38:28;;;;;;;18.05;14.70;;;;;;;5.72;65.76;101910.38;1733357;82;21576;-47
2021/01/09 08:40:59;;;;;;;15.88;12.63;;;;;;;5.76;65.72;101899.25;1633191;87;21657;-46
2021/01/09 08:43:29;;;;;;;17.62;13.93;;;;;;;5.82;65.59;101895.89;1636855;87;21247;-46
2021/01/09 08:45:58;;;;;;;17.82;14.07;;;;;;;5.85;65.59;101897.27;1682480;85;21159;-46
2021/01/09 08:48:28;;;;;;;17.17;13.32;;;;;;;5.86;65.36;101897.70;1676194;85;21200;-47
2021/01/09 08:51:04;;;;;;;17.62;13.80;;;;;;;5.86;65.13;101899.88;1673573;85;21595;-47
2021/01/09 08:53:53;;;;;;;16.82;13.43;;;;;;;5.86;65.18;101889.95;1678530;85;21604;-46
2021/01/09 08:56:23;;;;;;;16.60;13.08;;;;;;;5.89;64.89;101898.64;1672409;85;21155;-46
2021/01/09 08:58:52;;;;;;;17.10;14.78;;;;;;;5.90;65.03;101893.03;1684467;85;21188;-46
2021/01/09 09:01:28;;;;;;;15.65;13.60;;;;;;;5.87;64.84;101902.04;1685994;85;21146;-46
2021/01/09 09:04:03;;;;;;;18.17;14.33;;;;;;;5.88;64.93;101899.47;1807870;77;22949;-47
2021/01/09 09:06:32;;;;;;;17.70;13.93;;;;;;;5.84;64.77;101896.40;1775352;78;21148;-47
2021/01/09 09:09:01;;;;;;;17.95;13.75;;;;;;;5.80;64.68;101910.08;1707919;81;21200;-47
2021/01/09 09:11:31;;;;;;;15.23;12.68;;;;;;;5.76;64.57;101919.50;1708929;83;21168;-46
2021/01/09 09:14:07;;;;;;;18.25;13.22;;;;;;;5.75;64.70;101916.87;1723000;83;21325;-46
2021/01/09 09:16:39;;;;;;;19.98;13.48;;;;;;;5.72;64.68;101915.55;1740753;81;21584;-46
2021/01/09 09:19:17;;;;;;;17.77;14.28;;;;;;;5.73;64.82;101904.35;1671419;84;21188;-47
2021/01/09 09:21:47;;;;;;;15.00;12.63;;;;;;;5.71;64.40;101908.63;1669546;85;21621;-47
2021/01/09 09:24:16;;;;;;;15.25;13.13;;;;;;;5.70;64.23;101909.48;1664751;85;21179;-46
2021/01/09 09:26:45;;;;;;;15.72;13.20;;;;;;;5.69;64.19;101907.73;1664571;85;21217;-46
2021/01/09 09:29:16;;;;;;;17.10;13.58;;;;;;;5.70;64.53;101900.45;1665169;85;21153;-46
2021/01/09 09:31:43;;;;;;;20.30;14.30;;;;;;;5.75;65.00;101906.53;1667510;85;21377;-47
2021/01/09 09:34:14;;;;;;;16.75;13.43;;;;;;;5.78;64.97;101906.59;1688344;84;21618;-46
2021/01/09 09:36:53;;;;;;;;;;;;;;;5.80;64.95;101908.78;1677048;84;21553;-44
2021/01/09 09:39:22;;;;;;;17.12;13.83;;;;;;;5.81;64.78;101901.50;1680835;84;20194;-47
2021/01/09 09:42:03;;;;;;;14.98;12.15;;;;;;;5.83;64.86;101898.52;1680247;84;21201;-46
2021/01/09 09:44:42;;;;;;;13.22;10.40;;;;;;;5.87;64.74;101905.50;1657579;84;21240;-46
2021/01/09 09:47:25;;;;;;;16.82;13.68;;;;;;;5.89;64.47;101903.81;1667207;84;21264;-46
2021/01/09 09:49:59;;;;;;;17.00;13.38;;;;;;;5.93;64.38;101904.30;1818021;77;23382;-46
2021/01/09 09:52:28;;;;;;;14.95;11.90;;;;;;;5.91;64.31;101902.53;1753624;81;21388;-47
2021/01/09 09:55:01;;;;;;;14.20;11.05;;;;;;;5.95;64.62;101903.91;1791428;80;21545;-47
2021/01/09 09:57:29;;;;;;;14.15;11.80;;;;;;;6.03;64.47;101905.30;1756372;81;21148;-47
2021/01/09 10:00:13;;;;;;;14.45;12.20;;;;;;;6.10;64.19;101906.69;1765408;81;21585;-47
2021/01/09 10:02:55;;;;;;;14.45;11.65;;;;;;;6.13;64.44;101905.45;1764091;81;21620;-46
2021/01/09 10:05:24;;;;;;;;;;;;;;;6.21;64.50;101902.56;1764283;81;21112;-44
2021/01/09 10:08:15;;;;;;;16.32;13.03;;;;;;;6.29;64.45;101908.70;1763049;81;20148;-46
2021/01/09 10:10:49;;;;;;;19.75;14.43;;;;;;;6.32;64.24;101911.34;1760729;81;21131;-46
2021/01/09 10:13:29;;;;;;;14.83;11.65;;;;;;;6.35;64.73;101908.78;1761011;81;21147;-47
2021/01/09 10:15:58;;;;;;;14.98;11.18;;;;;;;6.41;64.47;101911.45;1767244;81;21152;-46
2021/01/09 10:18:29;;;;;;;16.73;11.75;;;;;;;6.42;64.03;101904.16;1767187;81;21149;-47
2021/01/09 10:20:58;;;;;;;19.27;13.08;;;;;;;6.45;64.19;101904.17;1759318;81;21109;-46
2021/01/09 10:23:30;;;;;;;15.90;13.00;;;;;;;6.47;64.25;101907.66;1766786;81;21584;-46
2021/01/09 10:25:59;;;;;;;15.95;12.63;;;;;;;6.46;64.14;101914.98;1756138;81;21143;-46
2021/01/09 10:28:27;;;;;;;15.60;12.18;;;;;;;6.45;64.37;101913.23;1759986;81;21164;-47
2021/01/09 10:30:56;;;;;;;18.17;13.28;;;;;;;6.43;64.41;101911.46;1761482;81;21140;-47
2021/01/09 10:33:24;;;;;;;14.00;11.53;;;;;;;6.45;64.64;101920.98;1766973;81;21112;-47
2021/01/09 10:35:53;;;;;;;15.13;11.95;;;;;;;6.48;64.38;101913.28;1769372;81;21155;-46
2021/01/09 10:38:22;;;;;;;15.78;12.93;;;;;;;6.49;63.98;101915.00;1751530;81;21657;-46
2021/01/09 10:40:50;;;;;;;18.25;13.88;;;;;;;6.46;64.01;101914.98;1766806;81;21309;-47
2021/01/09 10:43:19;;;;;;;16.82;14.03;;;;;;;6.46;64.39;101916.27;1768170;81;21135;-47
2021/01/09 10:45:48;;;;;;;18.17;13.65;;;;;;;6.47;64.17;101921.03;1762498;81;21176;-46
2021/01/09 10:48:19;;;;;;;17.98;13.20;;;;;;;6.45;64.03;101918.39;1752464;81;21196;-47
2021/01/09 10:50:48;;;;;;;15.48;12.58;;;;;;;6.42;63.90;101915.78;1730243;82;21152;-46
2021/01/09 10:53:17;;;;;;;16.52;12.98;;;;;;;6.39;63.68;101905.80;1741380;81;21157;-46
2021/01/09 10:55:47;;;;;;;16.52;14.00;;;;;;;6.33;63.49;101902.72;1728139;81;21147;-46
2021/01/09 10:58:15;;;;;;;18.00;14.05;;;;;;;6.30;63.72;101913.45;1742317;81;21165;-46
2021/01/09 11:00:44;;;;;;;15.85;13.58;;;;;;;6.27;64.18;101912.98;1747959;81;21175;-46
2021/01/09 11:03:12;;;;;;;17.00;13.60;;;;;;;6.24;63.75;101893.58;1735463;81;21147;-46
2021/01/09 11:05:41;;;;;;;19.42;15.38;;;;;;;6.21;64.14;101902.56;1733821;81;21293;-47
2021/01/09 11:08:10;;;;;;;18.67;15.32;;;;;;;6.21;64.54;101906.44;1741387;81;21145;-46
2021/01/09 11:10:39;;;;;;;20.97;17.10;;;;;;;6.22;64.50;101904.28;1736814;81;21223;-46
2021/01/09 11:13:07;;;;;;;16.67;14.15;;;;;;;6.23;64.83;101907.33;1740225;82;21191;-46
2021/01/09 11:15:36;;;;;;;18.42;15.03;;;;;;;6.29;64.65;101906.11;1732707;82;21699;-46
2021/01/09 11:18:05;;;;;;;21.50;16.95;;;;;;;6.30;64.46;101911.75;1727318;82;21157;-47
2021/01/09 11:20:33;;;;;;;24.00;16.80;;;;;;;6.29;64.63;101903.53;1738027;82;21176;-46
2021/01/09 11:23:01;;;;;;;19.90;16.45;;;;;;;6.29;64.76;101906.11;1739610;82;21160;-47
2021/01/09 11:25:30;;;;;;;18.57;15.88;;;;;;;6.31;64.78;101906.12;1731454;81;21137;-46
2021/01/09 11:27:58;;;;;;;19.20;16.40;;;;;;;6.30;64.60;101911.75;1739952;81;21302;-46
2021/01/09 11:30:27;;;;;;;21.40;17.70;;;;;;;6.29;64.84;101913.88;1758012;81;21293;-47
2021/01/09 11:32:55;;;;;;;20.62;16.17;;;;;;;6.30;64.66;101917.33;1754819;81;21580;-47
2021/01/09 11:35:24;;;;;;;19.90;16.00;;;;;;;6.28;64.74;101919.91;1758640;81;21615;-47
2021/01/09 11:37:52;;;;;;;19.80;16.70;;;;;;;6.26;64.66;101931.94;1758793;81;21143;-46